Gether, Virginia
Current Conditions -  °F | °C
As of 11:54 AM on Friday 24 Oct 2014 (Local Time) from KOFP Reporting Station
Clear Clear  
Wind Chill: 62°   Ceiling: Unl
Heat Index: 62°   Visibility: 10mi
Dew Point: 45°   Wind: 5mph
Humidity: 53%   Direction: 290°WNW
Pressure: 30.02"   Gusts: NA
Location:  37.969°N, 77.2743°W
Report Text: KOFP 241554Z AUTO 29004KT 10SM CLR 17/07 A3002 RMK AO2 SLP164 T01670072
Loading
Personal Weather Stations






























Interactive Weather Map
Tropical Storm Tracking
New forecast layout! Learn more

10-Day Weather Forecast

Advertisements
Track Severe Weather on mobile